createdAt,value
2019-02-12T00:01:00.312Z,4.89
2019-02-12T00:03:29.585Z,4.87
2019-02-12T00:05:58.846Z,4.92
2019-02-12T00:08:28.163Z,4.85
2019-02-12T00:10:57.446Z,4.93
2019-02-12T00:13:26.705Z,4.88
2019-02-12T00:15:55.947Z,4.85
2019-02-12T00:18:28.196Z,4.84
2019-02-12T00:20:57.419Z,4.80
2019-02-12T00:23:26.722Z,4.73
2019-02-12T00:25:55.973Z,4.77
2019-02-12T00:28:25.221Z,4.74
2019-02-12T00:30:54.533Z,4.73
2019-02-12T00:33:23.831Z,4.74
2019-02-12T00:35:53.124Z,4.73
2019-02-12T00:38:22.386Z,4.65
2019-02-12T00:40:51.619Z,4.66
2019-02-12T00:43:20.934Z,4.71
2019-02-12T00:45:50.288Z,4.69
2019-02-12T00:48:19.542Z,4.71
2019-02-12T00:50:48.801Z,4.79
2019-02-12T00:53:18.073Z,4.77
2019-02-12T00:55:47.374Z,4.77
2019-02-12T00:58:37.746Z,4.79
2019-02-12T01:01:07.092Z,4.79
2019-02-12T01:03:36.403Z,4.81
2019-02-12T01:06:05.709Z,4.87
2019-02-12T01:08:35.026Z,4.89
2019-02-12T01:11:04.355Z,4.85
2019-02-12T01:13:33.748Z,4.84
2019-02-12T01:16:03.048Z,4.82
2019-02-12T01:18:32.312Z,4.79
2019-02-12T01:21:01.634Z,4.79
2019-02-12T01:23:31.418Z,4.89
2019-02-12T01:26:00.677Z,4.85
2019-02-12T01:28:30.091Z,4.80
2019-02-12T01:30:59.423Z,4.78
2019-02-12T01:33:28.728Z,4.76
2019-02-12T01:35:57.931Z,4.78
2019-02-12T01:38:27.246Z,4.77
2019-02-12T01:40:56.567Z,4.81
2019-02-12T01:43:25.875Z,4.91
2019-02-12T01:45:55.116Z,4.88
2019-02-12T01:48:24.386Z,4.81
2019-02-12T01:50:53.658Z,4.84
2019-02-12T01:53:22.925Z,4.84
2019-02-12T01:55:52.156Z,4.88
2019-02-12T01:58:21.395Z,4.93
2019-02-12T02:00:50.621Z,4.92
2019-02-12T02:03:19.863Z,4.90
2019-02-12T02:05:49.104Z,4.89
2019-02-12T02:08:18.327Z,4.90
2019-02-12T02:10:47.594Z,4.92
2019-02-12T02:13:16.786Z,4.92
2019-02-12T02:15:46.066Z,4.90
2019-02-12T02:18:15.265Z,4.82
2019-02-12T02:20:44.601Z,4.83
2019-02-12T02:23:14.006Z,4.84
2019-02-12T02:25:43.228Z,4.89
2019-02-12T02:28:12.469Z,4.87
2019-02-12T02:30:41.715Z,4.84
2019-02-12T02:33:10.966Z,4.88
2019-02-12T02:35:40.206Z,4.83
2019-02-12T02:38:09.422Z,4.84
2019-02-12T02:40:38.659Z,4.80
2019-02-12T02:43:07.855Z,4.81
2019-02-12T02:45:37.130Z,4.89
2019-02-12T02:48:06.316Z,4.82
2019-02-12T02:50:35.541Z,4.82
2019-02-12T02:53:04.763Z,4.79
2019-02-12T02:55:33.979Z,4.89
2019-02-12T02:58:03.188Z,4.83
2019-02-12T03:03:37.014Z,4.83
2019-02-12T03:06:51.156Z,4.78
2019-02-12T03:09:20.411Z,4.79
2019-02-12T03:11:49.618Z,4.82
2019-02-12T03:14:18.957Z,4.82
2019-02-12T03:16:48.161Z,4.85
2019-02-12T03:19:17.381Z,4.84
2019-02-12T03:21:46.633Z,4.86
2019-02-12T03:24:15.859Z,4.86
2019-02-12T03:26:45.096Z,4.82
2019-02-12T03:29:14.388Z,4.76
2019-02-12T03:31:43.634Z,4.78
2019-02-12T03:34:12.852Z,4.80
2019-02-12T03:36:42.093Z,4.75
2019-02-12T03:39:11.340Z,4.76
2019-02-12T03:41:40.649Z,4.74
2019-02-12T03:44:09.868Z,4.81
2019-02-12T03:46:39.098Z,4.73
2019-02-12T03:49:08.743Z,4.77
2019-02-12T03:51:38.030Z,4.73
2019-02-12T03:54:07.249Z,4.75
2019-02-12T03:56:36.489Z,4.73
2019-02-12T03:59:05.776Z,4.69
2019-02-12T04:01:35.035Z,4.78
2019-02-12T04:04:04.235Z,4.72
2019-02-12T04:06:33.458Z,4.74
2019-02-12T04:09:02.679Z,4.71
2019-02-12T04:11:31.926Z,4.75
2019-02-12T04:14:01.126Z,4.82
2019-02-12T04:16:30.336Z,4.77
2019-02-12T04:18:59.587Z,4.72
2019-02-12T04:21:28.844Z,4.70
2019-02-12T04:23:58.072Z,4.73
2019-02-12T04:26:27.290Z,4.67
2019-02-12T04:28:56.512Z,4.68
2019-02-12T04:31:25.795Z,4.72
2019-02-12T04:33:55.032Z,4.69
2019-02-12T04:36:24.281Z,4.68
2019-02-12T04:38:53.986Z,4.66
2019-02-12T04:41:23.383Z,4.64
2019-02-12T04:43:52.587Z,4.58
2019-02-12T04:46:21.923Z,4.58
2019-02-12T04:48:51.172Z,4.58
2019-02-12T04:51:20.443Z,4.58
2019-02-12T04:53:49.659Z,4.60
2019-02-12T04:56:18.881Z,4.59
2019-02-12T04:58:48.092Z,4.64
2019-02-12T05:01:17.337Z,4.65
2019-02-12T05:03:46.876Z,4.63
2019-02-12T05:06:16.117Z,4.59
2019-02-12T05:09:20.080Z,4.58
2019-02-12T05:12:00.546Z,4.53
2019-02-12T05:14:29.778Z,4.59
2019-02-12T05:16:58.993Z,4.55
2019-02-12T05:19:28.326Z,4.53
2019-02-12T05:21:57.582Z,4.46
2019-02-12T05:24:26.976Z,4.50
2019-02-12T05:26:56.169Z,4.45
2019-02-12T05:29:25.393Z,4.41
2019-02-12T05:31:54.668Z,4.44
2019-02-12T05:34:23.950Z,4.48
2019-02-12T05:36:53.184Z,4.47
2019-02-12T05:39:22.414Z,4.53
2019-02-12T05:41:51.635Z,4.54
2019-02-12T05:44:20.884Z,4.55
2019-02-12T05:46:50.139Z,4.52
2019-02-12T05:49:19.389Z,4.58
2019-02-12T05:51:48.602Z,4.64
2019-02-12T05:54:17.814Z,4.63
2019-02-12T05:56:47.060Z,4.66
2019-02-12T05:59:16.315Z,4.70
2019-02-12T06:01:45.544Z,4.80
2019-02-12T06:04:14.832Z,4.75
2019-02-12T06:06:44.068Z,4.69
2019-02-12T06:09:13.338Z,4.77
2019-02-12T06:11:42.589Z,4.70
2019-02-12T06:14:11.804Z,4.69
2019-02-12T06:16:41.163Z,4.74
2019-02-12T06:19:11.626Z,4.76
2019-02-12T06:21:40.935Z,4.74
2019-02-12T06:24:10.161Z,4.74
2019-02-12T06:26:39.408Z,4.80
2019-02-12T06:29:08.674Z,4.76
2019-02-12T06:31:37.922Z,4.77
2019-02-12T06:34:07.175Z,4.77
2019-02-12T06:36:36.400Z,4.83
2019-02-12T06:39:07.068Z,4.88
2019-02-12T06:41:36.447Z,4.86
2019-02-12T06:44:05.893Z,4.78
2019-02-12T06:46:35.170Z,4.74
2019-02-12T06:49:04.396Z,4.79
2019-02-12T06:51:36.607Z,4.84
2019-02-12T06:54:05.924Z,4.82
2019-02-12T06:56:35.168Z,4.88
2019-02-12T06:59:04.416Z,4.83
2019-02-12T07:01:33.643Z,4.83
2019-02-12T07:04:24.163Z,4.80
2019-02-12T07:07:40.677Z,4.83
2019-02-12T07:10:27.628Z,4.85
2019-02-12T07:13:17.263Z,4.82
2019-02-12T07:16:33.167Z,4.90
2019-02-12T07:19:49.246Z,4.91
2019-02-12T07:23:02.747Z,4.92
2019-02-12T07:26:03.858Z,4.89
2019-02-12T07:32:47.372Z,4.84
2019-02-12T07:36:03.808Z,4.83
2019-02-12T07:39:01.903Z,4.84
2019-02-12T07:41:50.634Z,4.89
2019-02-12T07:44:36.673Z,4.88
2019-02-12T07:47:41.102Z,4.91
2019-02-12T07:50:57.724Z,4.97
2019-02-12T07:53:49.105Z,5.04
2019-02-12T07:56:47.540Z,5.04
2019-02-12T07:59:31.768Z,5.04
2019-02-12T08:03:03.553Z,5.09
2019-02-12T08:06:00.088Z,5.20
2019-02-12T08:09:20.213Z,5.34
2019-02-12T08:12:20.411Z,5.33
2019-02-12T08:15:33.671Z,5.36
2019-02-12T08:18:12.138Z,5.37
2019-02-12T08:21:10.157Z,5.41
2019-02-12T08:24:21.259Z,5.49
2019-02-12T08:27:46.483Z,5.59
2019-02-12T08:30:56.802Z,5.67
2019-02-12T08:34:10.558Z,5.78
2019-02-12T08:37:11.983Z,5.85
2019-02-12T08:39:55.432Z,5.93
2019-02-12T08:42:43.674Z,5.95
2019-02-12T08:46:00.209Z,6.03
2019-02-12T08:48:55.401Z,6.06
2019-02-12T08:51:59.466Z,6.14
2019-02-12T08:55:05.684Z,6.14
2019-02-12T08:58:00.066Z,6.23
2019-02-12T09:01:11.859Z,6.21
2019-02-12T09:04:22.654Z,6.28
2019-02-12T09:10:54.727Z,6.35
2019-02-12T09:13:56.240Z,6.40
2019-02-12T09:17:09.610Z,6.44
2019-02-12T09:20:04.559Z,6.52
2019-02-12T09:23:29.577Z,6.58
2019-02-12T09:26:35.874Z,6.54
2019-02-12T09:29:25.181Z,6.63
2019-02-12T09:32:14.890Z,6.70
2019-02-12T09:35:02.984Z,6.78
2019-02-12T09:38:18.704Z,6.80
2019-02-12T09:41:12.233Z,6.81
2019-02-12T09:44:18.092Z,6.93
2019-02-12T09:47:08.141Z,7.03
2019-02-12T09:50:14.333Z,7.07
2019-02-12T09:53:15.874Z,7.07
2019-02-12T09:56:32.603Z,6.94
2019-02-12T09:59:19.654Z,6.87
2019-02-12T10:02:02.242Z,6.73
2019-02-12T10:05:03.583Z,6.64
2019-02-12T10:07:53.317Z,6.43
2019-02-12T10:10:53.049Z,6.23
2019-02-12T10:13:57.205Z,6.15
2019-02-12T10:16:57.772Z,6.08
2019-02-12T10:19:45.014Z,6.03
2019-02-12T10:22:42.105Z,6.10
2019-02-12T10:25:47.436Z,6.28
2019-02-12T10:28:48.541Z,6.52
2019-02-12T10:31:43.667Z,6.96
2019-02-12T10:34:12.985Z,7.21
2019-02-12T10:36:42.417Z,7.51
2019-02-12T10:39:13.307Z,7.75
2019-02-12T10:41:42.624Z,7.90
2019-02-12T10:44:11.878Z,8.09
2019-02-12T10:46:41.217Z,8.19
2019-02-12T10:49:10.441Z,8.37
2019-02-12T10:51:39.715Z,8.59
2019-02-12T10:54:08.974Z,8.69
2019-02-12T10:56:38.260Z,8.83
2019-02-12T10:59:07.538Z,8.81
2019-02-12T11:01:37.065Z,8.78
2019-02-12T11:04:07.095Z,8.70
2019-02-12T11:06:36.759Z,8.68
2019-02-12T11:09:06.882Z,8.78
2019-02-12T11:11:36.875Z,8.95
2019-02-12T11:14:09.878Z,8.93
2019-02-12T11:16:40.307Z,8.87
2019-02-12T11:19:09.859Z,8.98
2019-02-12T11:21:41.162Z,9.14
2019-02-12T11:24:10.820Z,9.46
2019-02-12T11:26:42.420Z,9.73
2019-02-12T11:29:12.166Z,9.85
2019-02-12T11:31:42.980Z,9.96
2019-02-12T11:34:13.951Z,10.09
2019-02-12T11:36:44.618Z,9.98
2019-02-12T11:39:14.012Z,9.85
2019-02-12T11:41:43.656Z,9.79
2019-02-12T11:44:13.453Z,9.97
2019-02-12T11:46:43.190Z,10.14
2019-02-12T11:49:12.693Z,10.11
2019-02-12T11:51:44.534Z,9.94
2019-02-12T11:54:14.329Z,9.89
2019-02-12T11:56:43.902Z,9.79
2019-02-12T11:59:13.245Z,9.83
2019-02-12T12:01:43.000Z,9.77
2019-02-12T12:04:12.939Z,9.79
2019-02-12T12:06:42.711Z,9.76
2019-02-12T12:09:12.287Z,9.68
2019-02-12T12:11:42.378Z,9.65
2019-02-12T12:14:16.555Z,9.68
2019-02-12T12:16:46.869Z,9.80
2019-02-12T12:19:16.689Z,9.89
2019-02-12T12:21:46.985Z,10.08
2019-02-12T12:24:17.176Z,10.09
2019-02-12T12:26:47.138Z,10.11
2019-02-12T12:29:17.157Z,9.97
2019-02-12T12:31:52.434Z,9.92
2019-02-12T12:34:22.929Z,9.96
2019-02-12T12:36:52.903Z,10.06
2019-02-12T12:39:22.678Z,10.05
2019-02-12T12:41:52.418Z,10.04
2019-02-12T12:44:21.943Z,10.00
2019-02-12T12:46:51.545Z,10.03
2019-02-12T12:49:21.098Z,9.75
2019-02-12T12:51:50.568Z,9.57
2019-02-12T12:54:19.903Z,9.42
2019-02-12T12:56:51.561Z,9.24
2019-02-12T12:59:21.577Z,9.15
2019-02-12T13:01:51.034Z,9.24
2019-02-12T13:04:21.116Z,9.31
2019-02-12T13:07:41.899Z,9.28
2019-02-12T13:10:13.884Z,9.35
2019-02-12T13:12:43.731Z,9.53
2019-02-12T13:15:13.653Z,9.75
2019-02-12T13:17:43.482Z,9.96
2019-02-12T13:20:14.318Z,10.13
2019-02-12T13:22:53.757Z,10.15
2019-02-12T13:25:23.801Z,10.14
2019-02-12T13:27:53.183Z,10.15
2019-02-12T13:30:22.668Z,10.12
2019-02-12T13:33:49.776Z,10.05
2019-02-12T13:36:19.409Z,10.03
2019-02-12T13:38:49.065Z,9.85
2019-02-12T13:41:19.960Z,9.68
2019-02-12T13:43:49.561Z,9.49
2019-02-12T13:46:19.591Z,9.37
2019-02-12T13:48:49.434Z,9.32
2019-02-12T13:51:19.663Z,9.26
2019-02-12T13:53:49.439Z,9.25
2019-02-12T13:56:19.420Z,9.08
2019-02-12T13:58:49.497Z,9.06
2019-02-12T14:01:19.352Z,9.02
2019-02-12T14:03:49.460Z,8.98
2019-02-12T14:06:19.043Z,8.89
2019-02-12T14:08:49.172Z,8.90
2019-02-12T14:11:18.987Z,8.87
2019-02-12T14:13:48.679Z,8.82
2019-02-12T14:16:18.180Z,8.80
2019-02-12T14:18:47.933Z,8.81
2019-02-12T14:21:17.383Z,8.75
2019-02-12T14:23:46.972Z,8.69
2019-02-12T14:26:18.806Z,8.65
2019-02-12T14:29:21.568Z,8.68
2019-02-12T14:31:53.219Z,8.65
2019-02-12T14:34:22.614Z,8.57
2019-02-12T14:36:52.007Z,8.65
2019-02-12T14:39:21.305Z,8.62
2019-02-12T14:41:50.541Z,8.65
2019-02-12T14:44:19.796Z,8.63
2019-02-12T14:46:49.158Z,8.60
2019-02-12T14:49:18.597Z,8.57
2019-02-12T14:51:47.880Z,8.55
2019-02-12T14:54:17.107Z,8.58
2019-02-12T14:56:46.530Z,8.50
2019-02-12T14:59:15.929Z,8.46
2019-02-12T15:01:45.312Z,8.51
2019-02-12T15:04:14.639Z,8.53
2019-02-12T15:09:48.179Z,8.50
2019-02-12T15:12:17.514Z,8.58
2019-02-12T15:14:46.932Z,8.58
2019-02-12T15:17:17.508Z,8.56
2019-02-12T15:19:46.765Z,8.53
2019-02-12T15:22:15.998Z,8.57
2019-02-12T15:24:45.467Z,8.62
2019-02-12T15:27:14.873Z,8.66
2019-02-12T15:29:44.585Z,8.63
2019-02-12T15:33:11.019Z,8.65
2019-02-12T15:35:40.346Z,8.57
2019-02-12T15:38:09.617Z,8.55
2019-02-12T15:40:38.900Z,8.40
2019-02-12T15:46:36.237Z,8.32
2019-02-12T15:49:05.536Z,8.31
2019-02-12T15:51:34.779Z,8.45
2019-02-12T15:54:59.141Z,8.37
2019-02-12T15:57:29.564Z,8.33
2019-02-12T15:59:58.919Z,8.27
2019-02-12T16:02:28.265Z,8.28
2019-02-12T16:04:57.606Z,8.24
2019-02-12T16:07:28.501Z,8.22
2019-02-12T16:09:57.896Z,8.39
2019-02-12T16:12:28.519Z,8.43
2019-02-12T16:14:59.750Z,8.34
2019-02-12T16:17:28.933Z,8.26
2019-02-12T16:20:00.894Z,8.24
2019-02-12T16:22:30.415Z,8.30
2019-02-12T16:25:00.023Z,8.19
2019-02-12T16:27:32.399Z,8.27
2019-02-12T16:30:02.837Z,8.25
2019-02-12T16:32:32.288Z,8.16
2019-02-12T16:35:03.628Z,8.13
2019-02-12T16:37:32.908Z,8.19
2019-02-12T16:40:02.230Z,8.30
2019-02-12T16:42:31.774Z,8.27
2019-02-12T16:45:04.560Z,8.23
2019-02-12T16:47:33.887Z,8.11
2019-02-12T16:50:03.262Z,8.18
2019-02-12T16:52:32.861Z,8.17
2019-02-12T16:55:02.087Z,8.12
2019-02-12T16:57:31.381Z,8.12
2019-02-12T17:00:00.728Z,8.08
2019-02-12T17:02:30.072Z,8.06
2019-02-12T17:04:59.425Z,8.05
2019-02-12T17:07:28.822Z,7.98
2019-02-12T17:10:06.316Z,7.96
2019-02-12T17:12:35.647Z,7.99
2019-02-12T17:15:05.067Z,7.93
2019-02-12T17:17:34.332Z,8.02
2019-02-12T17:23:38.141Z,8.03
2019-02-12T17:26:07.398Z,7.98
2019-02-12T17:29:10.070Z,7.93
2019-02-12T17:31:39.383Z,8.05
2019-02-12T17:34:08.764Z,7.92
2019-02-12T17:36:38.066Z,8.01
2019-02-12T17:39:07.720Z,7.99
2019-02-12T17:41:37.058Z,7.97
2019-02-12T17:44:06.287Z,7.97
2019-02-12T17:46:36.789Z,8.03
2019-02-12T17:49:08.005Z,7.99
2019-02-12T17:51:37.368Z,8.00
2019-02-12T17:54:07.251Z,7.96
2019-02-12T17:56:37.360Z,7.93
2019-02-12T17:59:07.839Z,8.01
2019-02-12T18:01:40.064Z,7.99
2019-02-12T18:04:09.389Z,8.02
2019-02-12T18:06:39.565Z,7.99
2019-02-12T18:09:09.765Z,7.95
2019-02-12T18:11:39.057Z,7.90
2019-02-12T18:14:08.301Z,7.86
2019-02-12T18:16:40.469Z,7.84
2019-02-12T18:19:09.864Z,7.82
2019-02-12T18:21:39.163Z,7.73
2019-02-12T18:24:08.503Z,7.77
2019-02-12T18:26:38.114Z,7.74
2019-02-12T18:29:58.693Z,7.66
2019-02-12T18:32:28.343Z,7.79
2019-02-12T18:34:57.620Z,7.70
2019-02-12T18:37:26.955Z,7.63
2019-02-12T18:40:26.301Z,7.66
2019-02-12T18:42:55.599Z,7.67
2019-02-12T18:45:25.370Z,7.62
2019-02-12T18:47:54.893Z,7.68
2019-02-12T18:50:24.574Z,7.64
2019-02-12T18:52:54.160Z,7.63
2019-02-12T18:55:23.504Z,7.64
2019-02-12T18:57:53.661Z,7.61
2019-02-12T19:00:23.898Z,7.66
2019-02-12T19:02:53.291Z,7.63
2019-02-12T19:05:22.889Z,7.60
2019-02-12T19:07:52.367Z,7.58
2019-02-12T19:10:21.822Z,7.51
2019-02-12T19:12:51.368Z,7.56
2019-02-12T19:15:20.787Z,7.61
2019-02-12T19:17:57.256Z,7.52
2019-02-12T19:20:26.780Z,7.59
2019-02-12T19:22:56.802Z,7.52
2019-02-12T19:25:26.308Z,7.59
2019-02-12T19:27:56.913Z,7.45
2019-02-12T19:30:27.113Z,7.51
2019-02-12T19:32:56.685Z,7.54
2019-02-12T19:35:26.566Z,7.48
2019-02-12T19:37:56.277Z,7.53
2019-02-12T19:40:26.480Z,7.51
2019-02-12T19:42:56.895Z,7.54
2019-02-12T19:45:27.327Z,7.52
2019-02-12T19:47:57.898Z,7.53
2019-02-12T19:50:28.541Z,7.54
2019-02-12T19:52:59.105Z,7.46
2019-02-12T19:55:29.863Z,7.53
2019-02-12T19:58:00.244Z,7.52
2019-02-12T20:00:30.722Z,7.48
2019-02-12T20:03:01.111Z,7.49
2019-02-12T20:05:31.355Z,7.45
2019-02-12T20:08:01.581Z,7.53
2019-02-12T20:10:32.065Z,7.44
2019-02-12T20:13:03.234Z,7.43
2019-02-12T20:15:33.118Z,7.43
2019-02-12T20:18:58.225Z,7.48
2019-02-12T20:21:28.805Z,7.52
2019-02-12T20:24:46.683Z,7.56
2019-02-12T20:27:17.897Z,7.56
2019-02-12T20:29:47.748Z,7.42
2019-02-12T20:32:17.751Z,7.38
2019-02-12T20:34:48.101Z,7.50
2019-02-12T20:37:18.207Z,7.48
2019-02-12T20:39:48.069Z,7.39
2019-02-12T20:42:17.637Z,7.41
2019-02-12T20:44:48.524Z,7.34
2019-02-12T20:47:18.170Z,7.29
2019-02-12T20:49:47.828Z,7.38
2019-02-12T20:52:17.281Z,7.34
2019-02-12T20:55:23.080Z,7.31
2019-02-12T20:57:52.423Z,7.34
2019-02-12T21:00:48.894Z,7.41
2019-02-12T21:03:18.516Z,7.29
2019-02-12T21:05:48.285Z,7.40
2019-02-12T21:08:20.535Z,7.38
2019-02-12T21:10:50.040Z,7.38
2019-02-12T21:13:19.570Z,7.42
2019-02-12T21:15:49.242Z,7.43
2019-02-12T21:18:18.799Z,7.52
2019-02-12T21:20:48.561Z,7.49
2019-02-12T21:23:18.136Z,7.43
2019-02-12T21:25:47.806Z,7.51
2019-02-12T21:28:20.610Z,7.47
2019-02-12T21:30:50.145Z,7.43
2019-02-12T21:33:19.870Z,7.39
2019-02-12T21:35:49.372Z,7.39
2019-02-12T21:38:20.333Z,7.42
2019-02-12T21:40:49.981Z,7.37
2019-02-12T21:43:22.520Z,7.40
2019-02-12T21:45:52.047Z,7.39
2019-02-12T21:48:21.421Z,7.37
2019-02-12T21:50:50.775Z,7.34
2019-02-12T21:53:20.053Z,7.30
2019-02-12T21:55:49.390Z,7.21
2019-02-12T21:58:18.704Z,7.25
2019-02-12T22:00:50.028Z,7.25
2019-02-12T22:03:19.055Z,7.24
2019-02-12T22:05:48.462Z,7.24
2019-02-12T22:08:17.805Z,7.25
2019-02-12T22:10:47.280Z,7.23
2019-02-12T22:13:18.591Z,7.18
2019-02-12T22:15:47.660Z,7.13
2019-02-12T22:18:17.040Z,7.12
2019-02-12T22:20:46.345Z,7.12
2019-02-12T22:23:15.683Z,7.15
2019-02-12T22:25:48.832Z,7.19
2019-02-12T22:28:18.263Z,7.16
2019-02-12T22:30:47.614Z,7.13
2019-02-12T22:33:17.015Z,7.16
2019-02-12T22:35:46.342Z,7.09
2019-02-12T22:38:15.713Z,7.12
2019-02-12T22:40:45.127Z,7.17
2019-02-12T22:43:14.785Z,7.18
2019-02-12T22:45:44.677Z,7.17
2019-02-12T22:48:14.147Z,7.11
2019-02-12T22:50:44.003Z,7.15
2019-02-12T22:53:13.651Z,7.17
2019-02-12T22:55:43.004Z,7.13
2019-02-12T22:58:12.359Z,7.15
2019-02-12T23:00:56.888Z,7.15
2019-02-12T23:03:26.659Z,7.21
2019-02-12T23:05:55.995Z,7.15
2019-02-12T23:08:25.398Z,7.15
2019-02-12T23:10:56.297Z,7.06
2019-02-12T23:13:25.585Z,7.10
2019-02-12T23:15:54.981Z,7.13
2019-02-12T23:18:24.261Z,7.11
2019-02-12T23:20:53.550Z,7.16
2019-02-12T23:23:22.916Z,7.14
2019-02-12T23:25:52.300Z,7.12
2019-02-12T23:28:21.546Z,7.14
2019-02-12T23:30:50.872Z,7.17
2019-02-12T23:33:20.147Z,7.17
2019-02-12T23:35:49.413Z,7.03
2019-02-12T23:38:18.707Z,7.04
2019-02-12T23:40:48.148Z,7.01
2019-02-12T23:43:17.423Z,7.03
2019-02-12T23:45:46.716Z,7.04
2019-02-12T23:48:16.086Z,7.03
2019-02-12T23:50:45.416Z,7.01
2019-02-12T23:53:14.653Z,7.04
2019-02-12T23:55:43.983Z,7.03
2019-02-12T23:58:13.240Z,7.03
